Du har inga inställningar för hoppväder.nu

Hoppväder.nu

Senast uppdaterat 02:09

UTC-tid

2019-12-06 kl. 01:09


Sol och måne

Solen går upp 8:42 och går ner 14:42 (beräknade cirkatider)
Nästa fullmåne blir om 6 dagar (2019-12-12)

METAR

ESSA (Arlanda, Stockholm)
(19 minuter sedan)
ESSA 060050Z 22016KT 9999 -RA BKN021 05/03 Q0990 RWY 01L DAMP 51-100 PCT BA GOOD RWY 08 DAMP 51-100 PCT BA GOOD RWY 01R DAMP 51-100 PCT BA GOOD NOSIG=



ESSD (Borlänge)
(19 minuter sedan)
ESSD 060050Z AUTO 22012KT 190V250 9999 SCT019/// OVC084/// 05/02 Q0986=



EFMA (Mariehamn)
(19 minuter sedan)
EFMA 060050Z AUTO 22010KT 190V260 9999 OVC028 07/03 Q0990=



ESOW (Västerås)
(19 minuter sedan)
ESOW 060050Z AUTO 20015KT 6000 DZ BKN012/// OVC017/// 06/04 Q0990=






TAF

ESSA (Arlanda, Stockholm)
(99 minuter sedan)
ESSA 052330Z 0600/0624 23015KT 9999 BKN025 TEMPO 0602/0612 3500 RA BKN008=



ESSD (Borlänge)
ESSD



EFMA (Mariehamn)
(91 minuter sedan)
EFMA 052338Z 0600/0609 23011KT 9999 BKN030 TEMPO 0600/0609 7000 -RA BKN010=



ESOW (Västerås)
(459 minuter sedan)
ESOW 051730Z 0518/0522 22015G25KT 9999 BKN025=





Kodnycklar till TAF och METAR






LHP

(Gryttjom är område F2c i Norra delen)

Prognos är inte uppdaterad




Spotting

Hur fungerar spotthjälpen och Vindkartan?

Markvind är ca 0 m/s.



Vindkartan

Senast uppdaterad 02:09




All data kommer från LFV.se